Point Baker, Alaska
Current Conditions -  °F | °C
As of 1:36 AM on Friday 31 Oct 2014 (Local Time) from PAPG Reporting Station
Overcast Overcast  
Wind Chill: 39°   Ceiling: 2100
Heat Index: 39°   Visibility: 10mi
Dew Point: 36°   Wind: 3mph
Humidity: 87%   Direction: 200°SSW
Pressure: 29.58"   Gusts: NA
Location:  56.35°N, 133.61°W
Report Text: PAPG 310936Z 20003KT 10SM OVC021 04/02 A2958 RMK AO1
Loading
Personal Weather Stations






























Interactive Weather Map
Tropical Storm Tracking
New forecast layout! Learn more

10-Day Weather Forecast

Advertisements
Track Severe Weather on mobile